createdAt,value
2019-05-03T00:02:22.426Z,4.20
2019-05-03T00:04:59.226Z,4.20
2019-05-03T00:07:27.975Z,4.20
2019-05-03T00:09:56.772Z,4.20
2019-05-03T00:12:25.660Z,4.20
2019-05-03T00:15:12.055Z,4.20
2019-05-03T00:17:41.985Z,4.20
2019-05-03T00:20:11.678Z,4.20
2019-05-03T00:25:25.560Z,4.20
2019-05-03T00:27:54.363Z,4.20
2019-05-03T00:30:23.190Z,4.20
2019-05-03T00:32:52.263Z,4.20
2019-05-03T00:35:22.708Z,4.20
2019-05-03T00:37:53.154Z,4.20
2019-05-03T00:40:28.826Z,4.20
2019-05-03T00:42:58.629Z,4.20
2019-05-03T00:45:27.430Z,4.20
2019-05-03T00:47:56.243Z,4.20
2019-05-03T00:50:25.170Z,4.20
2019-05-03T00:52:53.921Z,4.20
2019-05-03T00:55:22.689Z,4.20
2019-05-03T00:57:52.138Z,4.20
2019-05-03T01:00:21.821Z,4.20
2019-05-03T01:02:51.732Z,4.20
2019-05-03T01:05:22.620Z,4.20
2019-05-03T01:07:52.603Z,4.20
2019-05-03T01:10:22.568Z,4.20
2019-05-03T01:12:52.351Z,4.20
2019-05-03T01:15:28.666Z,4.20
2019-05-03T01:17:57.697Z,4.20
2019-05-03T01:20:26.494Z,4.10
2019-05-03T01:22:55.204Z,4.10
2019-05-03T01:25:32.216Z,4.10
2019-05-03T01:27:54.879Z,4.10
2019-05-03T01:30:23.681Z,4.10
2019-05-03T01:32:52.687Z,4.10
2019-05-03T01:35:21.910Z,4.10
2019-05-03T01:37:51.741Z,4.10
2019-05-03T01:40:21.983Z,4.00
2019-05-03T01:42:51.786Z,4.00
2019-05-03T01:45:22.621Z,4.00
2019-05-03T01:47:52.885Z,4.00
2019-05-03T01:50:23.371Z,4.00
2019-05-03T01:52:53.792Z,4.00
2019-05-03T01:55:24.245Z,4.00
2019-05-03T01:58:12.538Z,4.00
2019-05-03T02:00:42.309Z,4.00
2019-05-03T02:03:12.729Z,4.00
2019-05-03T02:05:48.805Z,4.00
2019-05-03T02:08:17.595Z,4.00
2019-05-03T02:10:46.331Z,4.00
2019-05-03T02:13:15.213Z,4.00
2019-05-03T02:15:44.023Z,4.00
2019-05-03T02:18:14.919Z,4.00
2019-05-03T02:20:43.283Z,4.00
2019-05-03T02:23:12.018Z,4.00
2019-05-03T02:25:41.857Z,3.90
2019-05-03T02:28:12.607Z,4.10
2019-05-03T02:30:43.978Z,3.90
2019-05-03T02:33:13.422Z,3.90
2019-05-03T02:35:43.136Z,3.90
2019-05-03T02:38:12.956Z,3.90
2019-05-03T02:40:43.094Z,3.90
2019-05-03T02:43:16.404Z,3.90
2019-05-03T02:45:57.719Z,3.80
2019-05-03T02:48:49.643Z,3.80
2019-05-03T02:51:18.641Z,3.80
2019-05-03T02:53:47.480Z,3.80
2019-05-03T02:56:22.262Z,3.80
2019-05-03T02:58:46.924Z,3.70
2019-05-03T03:01:16.179Z,3.70
2019-05-03T03:03:45.886Z,3.70
2019-05-03T03:06:17.487Z,3.60
2019-05-03T03:08:48.940Z,3.60
2019-05-03T03:11:18.756Z,3.60
2019-05-03T03:13:50.686Z,3.60
2019-05-03T03:16:21.344Z,3.60
2019-05-03T03:18:55.686Z,3.60
2019-05-03T03:21:25.995Z,3.60
2019-05-03T03:24:09.832Z,3.50
2019-05-03T03:26:43.292Z,3.50
2019-05-03T03:29:12.439Z,3.50
2019-05-03T03:32:10.348Z,3.50
2019-05-03T03:34:54.561Z,3.50
2019-05-03T03:37:15.826Z,3.50
2019-05-03T03:39:45.789Z,3.50
2019-05-03T03:42:16.137Z,3.50
2019-05-03T03:44:46.106Z,3.50
2019-05-03T03:47:16.682Z,3.50
2019-05-03T03:49:47.243Z,3.50
2019-05-03T03:52:17.049Z,3.50
2019-05-03T03:54:48.456Z,3.50
2019-05-03T03:57:17.238Z,3.40
2019-05-03T03:59:45.983Z,3.40
2019-05-03T04:02:16.288Z,3.40
2019-05-03T04:04:45.482Z,3.40
2019-05-03T04:07:15.854Z,3.40
2019-05-03T04:09:45.837Z,3.40
2019-05-03T04:12:16.545Z,3.40
2019-05-03T04:15:05.715Z,3.40
2019-05-03T04:17:52.673Z,3.40
2019-05-03T04:20:25.656Z,3.40
2019-05-03T04:22:56.036Z,3.40
2019-05-03T04:25:26.310Z,3.40
2019-05-03T04:27:56.067Z,3.40
2019-05-03T04:30:25.704Z,3.40
2019-05-03T04:32:56.527Z,3.40
2019-05-03T04:35:26.536Z,3.40
2019-05-03T04:37:56.060Z,3.40
2019-05-03T04:40:25.950Z,3.40
2019-05-03T04:42:55.862Z,3.40
2019-05-03T04:45:25.620Z,3.40
2019-05-03T04:47:55.995Z,3.40
2019-05-03T04:50:25.713Z,3.50
2019-05-03T04:52:56.587Z,3.40
2019-05-03T04:55:26.579Z,3.50
2019-05-03T04:57:58.027Z,3.50
2019-05-03T05:00:26.919Z,3.40
2019-05-03T05:02:55.712Z,3.50
2019-05-03T05:05:26.152Z,3.50
2019-05-03T05:07:55.797Z,3.50
2019-05-03T05:10:26.187Z,3.50
2019-05-03T05:12:55.351Z,3.50
2019-05-03T05:15:26.564Z,3.50
2019-05-03T05:18:05.965Z,3.60
2019-05-03T05:20:42.373Z,3.60
2019-05-03T05:23:11.379Z,3.60
2019-05-03T05:25:41.784Z,3.60
2019-05-03T05:28:15.166Z,3.60
2019-05-03T05:30:44.423Z,3.60
2019-05-03T05:33:22.706Z,3.60
2019-05-03T05:35:52.138Z,3.60
2019-05-03T05:38:20.974Z,3.60
2019-05-03T05:40:50.209Z,3.60
2019-05-03T05:43:19.046Z,3.60
2019-05-03T05:45:47.776Z,3.60
2019-05-03T05:48:34.986Z,3.60
2019-05-03T05:51:04.473Z,3.60
2019-05-03T05:53:33.339Z,3.60
2019-05-03T05:56:06.762Z,3.60
2019-05-03T05:58:37.180Z,3.60
2019-05-03T06:01:07.832Z,3.50
2019-05-03T06:03:36.638Z,3.50
2019-05-03T06:06:07.022Z,3.50
2019-05-03T06:08:49.860Z,3.50
2019-05-03T06:11:20.224Z,3.50
2019-05-03T06:14:05.874Z,3.50
2019-05-03T06:16:36.262Z,3.50
2019-05-03T06:19:14.602Z,3.60
2019-05-03T06:21:47.707Z,3.60
2019-05-03T06:24:32.130Z,3.70
2019-05-03T06:27:02.492Z,3.70
2019-05-03T06:29:31.406Z,3.70
2019-05-03T06:32:18.468Z,3.70
2019-05-03T06:34:47.185Z,3.70
2019-05-03T06:37:17.617Z,3.70
2019-05-03T06:39:46.501Z,3.70
2019-05-03T06:42:19.102Z,3.70
2019-05-03T06:44:45.802Z,3.70
2019-05-03T06:47:14.983Z,3.70
2019-05-03T06:49:44.815Z,3.80
2019-05-03T06:52:14.714Z,3.80
2019-05-03T06:54:44.988Z,3.80
2019-05-03T06:57:15.535Z,3.80
2019-05-03T06:59:46.074Z,3.80
2019-05-03T07:02:16.660Z,3.80
2019-05-03T07:04:50.298Z,3.80
2019-05-03T07:07:36.098Z,3.90
2019-05-03T07:10:07.975Z,3.90
2019-05-03T07:12:54.779Z,3.90
2019-05-03T07:15:25.179Z,3.90
2019-05-03T07:17:55.652Z,4.00
2019-05-03T07:20:25.668Z,4.00
2019-05-03T07:22:55.859Z,4.00
2019-05-03T07:25:25.794Z,4.10
2019-05-03T07:27:55.510Z,4.10
2019-05-03T07:30:24.909Z,4.10
2019-05-03T07:32:55.531Z,4.10
2019-05-03T07:35:25.194Z,4.10
2019-05-03T07:37:55.294Z,4.10
2019-05-03T07:40:25.353Z,4.10
2019-05-03T07:42:55.393Z,4.20
2019-05-03T07:45:25.618Z,4.20
2019-05-03T07:47:55.786Z,4.20
2019-05-03T07:50:25.799Z,4.20
2019-05-03T07:52:55.585Z,4.30
2019-05-03T07:55:42.721Z,4.30
2019-05-03T07:58:15.056Z,4.30
2019-05-03T08:00:44.556Z,4.30
2019-05-03T08:03:15.408Z,4.30
2019-05-03T08:05:45.412Z,4.30
2019-05-03T08:08:14.998Z,4.40
2019-05-03T08:10:44.965Z,4.40
2019-05-03T08:13:15.077Z,4.40
2019-05-03T08:15:45.138Z,4.40
2019-05-03T08:18:15.327Z,4.50
2019-05-03T08:20:45.167Z,4.50
2019-05-03T08:23:26.368Z,4.50
2019-05-03T08:25:44.788Z,4.60
2019-05-03T08:28:14.679Z,4.60
2019-05-03T08:30:51.473Z,4.60
2019-05-03T08:33:25.024Z,4.60
2019-05-03T08:35:55.487Z,4.70
2019-05-03T08:38:25.720Z,4.70
2019-05-03T08:40:56.713Z,4.70
2019-05-03T08:43:25.635Z,4.80
2019-05-03T08:45:55.353Z,4.80
2019-05-03T08:48:24.941Z,4.90
2019-05-03T08:50:55.410Z,4.90
2019-05-03T08:53:27.512Z,4.90
2019-05-03T08:55:56.318Z,5.00
2019-05-03T08:58:26.426Z,5.00
2019-05-03T09:00:55.327Z,5.00
2019-05-03T09:03:43.342Z,5.00
2019-05-03T09:06:12.207Z,5.00
2019-05-03T09:08:41.012Z,5.10
2019-05-03T09:11:11.395Z,5.10
2019-05-03T09:13:47.749Z,5.10
2019-05-03T09:16:16.674Z,5.10
2019-05-03T09:18:45.574Z,5.10
2019-05-03T09:21:14.857Z,5.20
2019-05-03T09:23:45.085Z,5.20
2019-05-03T09:26:15.142Z,5.30
2019-05-03T09:28:45.421Z,5.30
2019-05-03T09:31:15.522Z,5.30
2019-05-03T09:33:45.202Z,5.40
2019-05-03T09:36:14.856Z,5.40
2019-05-03T09:38:45.553Z,5.50
2019-05-03T09:41:15.044Z,5.60
2019-05-03T09:43:44.984Z,5.60
2019-05-03T09:46:14.545Z,5.70
2019-05-03T09:48:45.482Z,5.70
2019-05-03T09:51:14.778Z,5.70
2019-05-03T09:53:47.897Z,5.80
2019-05-03T09:56:18.533Z,5.80
2019-05-03T09:58:47.351Z,5.80
2019-05-03T10:01:16.149Z,5.90
2019-05-03T10:03:45.306Z,5.90
2019-05-03T10:06:15.361Z,6.00
2019-05-03T10:08:45.429Z,6.10
2019-05-03T10:11:15.642Z,6.20
2019-05-03T10:13:48.067Z,6.20
2019-05-03T10:16:15.801Z,6.30
2019-05-03T10:18:45.948Z,6.30
2019-05-03T10:21:15.012Z,6.30
2019-05-03T10:23:45.224Z,6.30
2019-05-03T10:26:14.990Z,6.30
2019-05-03T10:28:44.103Z,6.40
2019-05-03T10:31:13.092Z,6.40
2019-05-03T10:33:49.455Z,6.40
2019-05-03T10:36:18.393Z,6.50
2019-05-03T10:38:47.110Z,6.50
2019-05-03T10:41:15.915Z,6.60
2019-05-03T10:43:45.257Z,6.70
2019-05-03T10:46:15.874Z,6.80
2019-05-03T10:48:45.237Z,6.90
2019-05-03T10:51:15.695Z,7.00
2019-05-03T10:53:46.395Z,7.10
2019-05-03T10:56:23.283Z,7.10
2019-05-03T10:59:00.494Z,7.10
2019-05-03T11:01:45.145Z,7.10
2019-05-03T11:04:14.755Z,7.10
2019-05-03T11:06:45.696Z,7.10
2019-05-03T11:09:15.311Z,7.10
2019-05-03T11:11:45.346Z,7.10
2019-05-03T11:14:14.970Z,7.10
2019-05-03T11:16:46.048Z,7.20
2019-05-03T11:19:14.732Z,7.30
2019-05-03T11:21:45.322Z,7.40
2019-05-03T11:24:14.791Z,7.50
2019-05-03T11:26:45.607Z,7.50
2019-05-03T11:29:15.835Z,7.50
2019-05-03T11:31:46.538Z,7.60
2019-05-03T11:34:22.518Z,7.60
2019-05-03T11:37:08.863Z,7.60
2019-05-03T11:39:37.724Z,7.60
2019-05-03T11:42:06.734Z,7.60
2019-05-03T11:44:38.605Z,7.60
2019-05-03T11:47:08.721Z,7.60
2019-05-03T11:49:37.551Z,7.70
2019-05-03T11:52:06.772Z,7.80
2019-05-03T11:54:36.015Z,7.90
2019-05-03T11:57:12.835Z,8.00
2019-05-03T11:59:41.578Z,8.10
2019-05-03T12:02:24.764Z,8.30
2019-05-03T12:04:55.260Z,8.40
2019-05-03T12:07:39.575Z,8.50
2019-05-03T12:10:14.873Z,8.70
2019-05-03T12:12:40.137Z,8.80
2019-05-03T12:15:10.130Z,8.90
2019-05-03T12:17:51.058Z,9.00
2019-05-03T12:20:12.405Z,9.10
2019-05-03T12:22:41.919Z,9.30
2019-05-03T12:25:11.734Z,9.40
2019-05-03T12:27:41.063Z,9.50
2019-05-03T12:30:10.068Z,9.60
2019-05-03T12:32:38.874Z,9.70
2019-05-03T12:35:07.933Z,9.80
2019-05-03T12:37:36.746Z,9.90
2019-05-03T12:40:10.251Z,10.00
2019-05-03T12:42:38.995Z,10.10
2019-05-03T12:45:11.222Z,10.20
2019-05-03T12:47:40.006Z,10.20
2019-05-03T12:50:09.258Z,10.30
2019-05-03T12:52:49.637Z,10.30
2019-05-03T12:55:08.699Z,10.40
2019-05-03T12:57:37.450Z,10.40
2019-05-03T13:00:11.215Z,10.50
2019-05-03T13:02:41.617Z,10.50
2019-05-03T13:05:10.429Z,10.50
2019-05-03T13:10:45.364Z,10.60
2019-05-03T13:13:14.630Z,10.70
2019-05-03T13:15:43.595Z,10.70
2019-05-03T13:18:12.554Z,10.80
2019-05-03T13:20:41.359Z,10.80
2019-05-03T13:23:12.826Z,10.90
2019-05-03T13:25:40.745Z,10.90
2019-05-03T13:28:09.501Z,11.00
2019-05-03T13:30:38.407Z,11.00
2019-05-03T13:33:07.325Z,11.00
2019-05-03T13:35:36.079Z,11.00
2019-05-03T13:38:04.821Z,11.10
2019-05-03T13:40:35.732Z,11.10
2019-05-03T13:43:06.497Z,11.20
2019-05-03T13:45:35.559Z,11.20
2019-05-03T13:48:05.086Z,11.20
2019-05-03T13:50:35.119Z,11.20
2019-05-03T13:53:04.872Z,11.20
2019-05-03T13:55:35.288Z,11.20
2019-05-03T13:58:05.238Z,11.30
2019-05-03T14:00:34.652Z,11.30
2019-05-03T14:03:04.535Z,11.40
2019-05-03T14:05:35.186Z,11.40
2019-05-03T14:08:05.097Z,11.40
2019-05-03T14:10:35.924Z,11.40
2019-05-03T14:13:05.613Z,11.30
2019-05-03T14:15:34.919Z,11.30
2019-05-03T14:18:05.993Z,11.30
2019-05-03T14:20:38.975Z,11.20
2019-05-03T14:23:07.832Z,11.10
2019-05-03T14:25:36.549Z,11.20
2019-05-03T14:28:05.565Z,11.20
2019-05-03T14:30:34.725Z,11.30
2019-05-03T14:33:05.081Z,11.40
2019-05-03T14:35:34.735Z,11.40
2019-05-03T14:38:05.993Z,11.40
2019-05-03T14:40:34.093Z,11.40
2019-05-03T14:43:04.813Z,11.40
2019-05-03T14:45:34.946Z,11.40
2019-05-03T14:48:06.134Z,11.40
2019-05-03T14:50:35.129Z,11.40
2019-05-03T14:53:05.390Z,11.30
2019-05-03T14:55:36.197Z,11.30
2019-05-03T14:58:14.760Z,11.20
2019-05-03T15:00:54.543Z,11.00
2019-05-03T15:03:25.472Z,10.90
2019-05-03T15:05:55.081Z,10.80
2019-05-03T15:08:25.666Z,10.70
2019-05-03T15:10:54.789Z,10.60
2019-05-03T15:13:25.076Z,10.60
2019-05-03T15:15:54.678Z,10.40
2019-05-03T15:18:25.568Z,10.30
2019-05-03T15:20:54.938Z,10.30
2019-05-03T15:23:25.494Z,10.20
2019-05-03T15:25:54.712Z,10.10
2019-05-03T15:28:25.083Z,10.00
2019-05-03T15:30:55.259Z,10.00
2019-05-03T15:33:24.245Z,9.90
2019-05-03T15:35:55.113Z,9.80
2019-05-03T15:38:23.739Z,9.70
2019-05-03T15:40:54.605Z,9.70
2019-05-03T15:43:28.937Z,9.60
2019-05-03T15:46:02.069Z,9.60
2019-05-03T15:48:32.704Z,9.50
2019-05-03T15:51:01.690Z,9.50
2019-05-03T15:53:30.534Z,9.40
2019-05-03T15:55:59.781Z,9.40
2019-05-03T15:58:28.706Z,9.30
2019-05-03T16:00:57.984Z,9.30
2019-05-03T16:03:26.965Z,9.20
2019-05-03T16:05:55.847Z,9.30
2019-05-03T16:08:24.917Z,9.10
2019-05-03T16:10:54.924Z,9.10
2019-05-03T16:13:25.311Z,9.00
2019-05-03T16:16:00.312Z,9.00
2019-05-03T16:18:29.454Z,8.90
2019-05-03T16:20:58.688Z,8.80
2019-05-03T16:23:27.525Z,8.70
2019-05-03T16:25:56.670Z,8.70
2019-05-03T16:28:30.042Z,8.60
2019-05-03T16:31:00.529Z,8.50
2019-05-03T16:33:29.247Z,8.50
2019-05-03T16:35:58.193Z,8.40
2019-05-03T16:38:27.091Z,8.40
2019-05-03T16:40:57.592Z,8.30
2019-05-03T16:43:26.494Z,8.30
2019-05-03T16:45:55.281Z,8.30
2019-05-03T16:48:24.750Z,8.20
2019-05-03T16:50:53.732Z,8.20
2019-05-03T16:53:22.530Z,8.10
2019-05-03T16:55:51.229Z,8.10
2019-05-03T16:58:20.169Z,8.10
2019-05-03T17:00:49.025Z,8.10
2019-05-03T17:03:19.413Z,8.10
2019-05-03T17:06:08.039Z,8.10
2019-05-03T17:08:56.856Z,8.20
2019-05-03T17:11:26.896Z,8.20
2019-05-03T17:13:57.653Z,8.20
2019-05-03T17:16:26.647Z,8.20
2019-05-03T17:18:55.513Z,8.20
2019-05-03T17:21:25.445Z,8.20
2019-05-03T17:23:54.467Z,8.20
2019-05-03T17:26:24.900Z,8.10
2019-05-03T17:28:55.392Z,8.00
2019-05-03T17:31:24.599Z,8.00
2019-05-03T17:33:56.234Z,8.00
2019-05-03T17:36:25.033Z,8.00
2019-05-03T17:38:55.802Z,8.00
2019-05-03T17:41:45.286Z,7.90
2019-05-03T17:44:24.811Z,7.90
2019-05-03T17:46:54.906Z,7.80
2019-05-03T17:49:23.697Z,7.70
2019-05-03T17:51:55.491Z,7.60
2019-05-03T17:54:29.009Z,7.60
2019-05-03T17:57:04.467Z,7.50
2019-05-03T17:59:35.277Z,7.40
2019-05-03T18:02:22.287Z,7.30
2019-05-03T18:05:09.638Z,7.30
2019-05-03T18:07:40.218Z,7.20
2019-05-03T18:10:10.461Z,7.20
2019-05-03T18:12:39.215Z,7.10
2019-05-03T18:15:08.706Z,7.10
2019-05-03T18:17:38.923Z,7.10
2019-05-03T18:20:08.275Z,7.00
2019-05-03T18:22:37.323Z,7.00
2019-05-03T18:25:06.818Z,6.90
2019-05-03T18:27:35.655Z,6.80
2019-05-03T18:30:07.830Z,6.70
2019-05-03T18:32:58.310Z,6.70
2019-05-03T18:35:27.321Z,6.60
2019-05-03T18:37:59.151Z,6.50
2019-05-03T18:40:29.681Z,6.50
2019-05-03T18:43:04.560Z,6.40
2019-05-03T18:45:35.174Z,6.40
2019-05-03T18:48:04.922Z,6.30
2019-05-03T18:50:35.024Z,6.20
2019-05-03T18:53:04.690Z,6.20
2019-05-03T18:55:34.398Z,6.10
2019-05-03T18:58:04.326Z,6.10
2019-05-03T19:00:35.137Z,6.00
2019-05-03T19:03:03.980Z,6.00
2019-05-03T19:05:34.976Z,6.00
2019-05-03T19:08:08.286Z,6.00
2019-05-03T19:10:38.770Z,6.00
2019-05-03T19:13:26.297Z,5.90
2019-05-03T19:15:55.312Z,5.90
2019-05-03T19:18:28.504Z,5.90
2019-05-03T19:20:57.478Z,5.90
2019-05-03T19:23:26.366Z,5.90
2019-05-03T19:25:55.352Z,5.90
2019-05-03T19:28:24.899Z,5.90
2019-05-03T19:30:54.928Z,5.90
2019-05-03T19:33:23.998Z,5.90
2019-05-03T19:35:52.747Z,5.90
2019-05-03T19:38:21.579Z,5.90
2019-05-03T19:40:50.571Z,5.90
2019-05-03T19:43:19.312Z,5.90
2019-05-03T19:45:48.044Z,5.90
2019-05-03T19:48:17.032Z,5.90
2019-05-03T19:50:45.823Z,5.90
2019-05-03T19:53:25.284Z,5.80
2019-05-03T19:55:55.311Z,5.90
2019-05-03T19:58:24.872Z,5.90
2019-05-03T20:00:58.923Z,5.80
2019-05-03T20:03:41.333Z,5.80
2019-05-03T20:06:11.935Z,5.80
2019-05-03T20:08:44.324Z,5.80
2019-05-03T20:11:15.034Z,5.80
2019-05-03T20:13:45.161Z,5.80
2019-05-03T20:16:15.461Z,5.80
2019-05-03T20:18:45.552Z,5.80
2019-05-03T20:21:15.023Z,5.80
2019-05-03T20:23:44.799Z,5.70
2019-05-03T20:26:15.093Z,5.70
2019-05-03T20:28:44.920Z,5.70
2019-05-03T20:31:13.983Z,5.70
2019-05-03T20:33:43.060Z,5.60
2019-05-03T20:36:11.791Z,5.60
2019-05-03T20:38:55.089Z,5.60
2019-05-03T20:41:25.545Z,5.60
2019-05-03T20:44:11.088Z,5.50
2019-05-03T20:46:44.232Z,5.50
2019-05-03T20:49:15.064Z,5.40
2019-05-03T20:51:45.343Z,5.30
2019-05-03T20:54:15.239Z,5.20
2019-05-03T20:56:45.636Z,5.10
2019-05-03T20:59:14.845Z,5.10
2019-05-03T21:01:45.329Z,5.10
2019-05-03T21:04:15.329Z,5.00
2019-05-03T21:06:45.497Z,5.00
2019-05-03T21:09:14.939Z,4.90
2019-05-03T21:11:44.854Z,4.90
2019-05-03T21:14:15.578Z,4.90
2019-05-03T21:16:46.027Z,4.90
2019-05-03T21:19:16.408Z,4.90
2019-05-03T21:21:50.210Z,4.90
2019-05-03T21:24:20.621Z,4.90
2019-05-03T21:26:49.410Z,4.90
2019-05-03T21:29:18.328Z,4.90
2019-05-03T21:31:47.191Z,4.90
2019-05-03T21:34:16.401Z,4.90
2019-05-03T21:36:45.407Z,4.90
2019-05-03T21:39:14.619Z,4.90
2019-05-03T21:41:45.091Z,4.90
2019-05-03T21:44:15.663Z,4.90
2019-05-03T21:46:49.237Z,4.90
2019-05-03T21:49:19.786Z,4.80
2019-05-03T21:51:48.526Z,4.80
2019-05-03T21:54:17.320Z,4.80
2019-05-03T21:56:46.267Z,4.70
2019-05-03T21:59:15.000Z,4.70
2019-05-03T22:01:45.587Z,4.70
2019-05-03T22:04:15.650Z,4.70
2019-05-03T22:06:44.542Z,4.70
2019-05-03T22:09:13.324Z,4.70
2019-05-03T22:11:42.308Z,4.60
2019-05-03T22:14:12.682Z,4.60
2019-05-03T22:16:44.931Z,4.60
2019-05-03T22:19:16.309Z,4.60
2019-05-03T22:22:01.706Z,4.50
2019-05-03T22:24:35.211Z,4.50
2019-05-03T22:27:07.049Z,4.40
2019-05-03T22:29:35.854Z,4.40
2019-05-03T22:32:05.325Z,4.30
2019-05-03T22:34:34.884Z,4.30
2019-05-03T22:37:03.848Z,4.20
2019-05-03T22:39:32.622Z,4.10
2019-05-03T22:42:01.835Z,4.10
2019-05-03T22:44:30.643Z,4.00
2019-05-03T22:46:59.411Z,4.00
2019-05-03T22:49:28.301Z,4.00
2019-05-03T22:51:57.063Z,3.90
2019-05-03T22:54:25.809Z,3.90
2019-05-03T22:56:55.568Z,3.90
2019-05-03T22:59:25.170Z,3.90
2019-05-03T23:01:54.643Z,3.80
2019-05-03T23:04:25.241Z,3.80
2019-05-03T23:06:55.533Z,3.80
2019-05-03T23:09:25.036Z,3.70
2019-05-03T23:11:55.192Z,3.70
2019-05-03T23:14:25.407Z,3.70
2019-05-03T23:16:54.707Z,3.70
2019-05-03T23:19:23.382Z,3.70
2019-05-03T23:21:59.695Z,3.70
2019-05-03T23:24:28.438Z,3.70
2019-05-03T23:26:57.158Z,3.70
2019-05-03T23:29:26.114Z,3.60
2019-05-03T23:31:54.931Z,3.60
2019-05-03T23:34:24.767Z,3.60
2019-05-03T23:36:54.781Z,3.60
2019-05-03T23:39:24.903Z,3.50
2019-05-03T23:41:55.752Z,3.50
2019-05-03T23:44:24.547Z,3.50
2019-05-03T23:46:54.900Z,3.50
2019-05-03T23:49:25.051Z,3.50
2019-05-03T23:51:55.759Z,3.50
2019-05-03T23:54:24.800Z,3.50
2019-05-03T23:56:54.724Z,3.60
2019-05-03T23:59:23.786Z,3.50
